createdAt,value
2019-03-10T11:42:21.742Z,44160.00
2019-03-10T11:43:22.779Z,110624.00
2019-03-10T11:44:21.665Z,118752.00
2019-03-10T11:45:21.642Z,44832.00
2019-03-10T11:46:21.634Z,111488.00
2019-03-10T11:47:21.627Z,110784.00
2019-03-10T11:48:21.640Z,106048.00
2019-03-10T11:49:21.598Z,81088.00
2019-03-10T11:50:21.584Z,97888.00
2019-03-10T11:51:21.607Z,99072.00
2019-03-10T11:52:21.587Z,106528.00
2019-03-10T11:53:21.563Z,96032.00
2019-03-10T11:54:21.579Z,44704.00
2019-03-10T11:55:21.612Z,57056.00
2019-03-10T11:56:21.518Z,106080.00
2019-03-10T11:57:21.507Z,47136.00
2019-03-10T11:58:21.502Z,52192.00
2019-03-10T11:59:21.506Z,121504.00
2019-03-10T12:00:21.523Z,79680.00
2019-03-10T12:01:21.473Z,40608.00
2019-03-10T12:02:21.456Z,50272.00
2019-03-10T12:03:21.444Z,86624.00
2019-03-10T12:04:21.446Z,90784.00
2019-03-10T12:05:21.455Z,103200.00
2019-03-10T12:06:21.411Z,107296.00
2019-03-10T12:07:23.517Z,113184.00
2019-03-10T12:08:21.387Z,112992.00
2019-03-10T12:09:21.415Z,111776.00
2019-03-10T12:10:21.694Z,113184.00
2019-03-10T12:11:21.354Z,107648.00
2019-03-10T12:12:21.434Z,82432.00
2019-03-10T12:13:21.345Z,42304.00
2019-03-10T12:14:21.322Z,61600.00
2019-03-10T12:15:21.352Z,50912.00
2019-03-10T12:16:21.306Z,44640.00
2019-03-10T12:17:21.290Z,35328.00
2019-03-10T12:18:21.276Z,33280.00
2019-03-10T12:19:21.270Z,30560.00
2019-03-10T12:20:21.257Z,54208.00
2019-03-10T12:21:21.306Z,53888.00
2019-03-10T12:22:21.241Z,50432.00
2019-03-10T12:23:21.223Z,36320.00
2019-03-10T12:24:21.213Z,36128.00
2019-03-10T12:25:21.197Z,51968.00
2019-03-10T12:26:21.186Z,74016.00
2019-03-10T12:27:21.229Z,41856.00
2019-03-10T12:28:21.169Z,51136.00
2019-03-10T12:29:21.200Z,60672.00
2019-03-10T12:30:21.175Z,33344.00
2019-03-10T12:31:21.180Z,34752.00
2019-03-10T12:32:21.261Z,37408.00
2019-03-10T12:33:21.170Z,33184.00
2019-03-10T12:34:21.106Z,31232.00
2019-03-10T12:35:21.101Z,32320.00
2019-03-10T12:36:21.087Z,34784.00
2019-03-10T12:37:21.068Z,39424.00
2019-03-10T12:38:21.069Z,43296.00
2019-03-10T12:39:21.079Z,72160.00
2019-03-10T12:40:21.041Z,81824.00
2019-03-10T12:41:21.027Z,79360.00
2019-03-10T12:42:21.030Z,54464.00
2019-03-10T12:43:21.021Z,34208.00
2019-03-10T12:44:21.029Z,107200.00
2019-03-10T12:45:20.977Z,103840.00
2019-03-10T12:46:20.967Z,94208.00
2019-03-10T12:47:20.983Z,97376.00
2019-03-10T12:48:20.949Z,36224.00
2019-03-10T12:49:20.946Z,48384.00
2019-03-10T12:50:20.967Z,45312.00
2019-03-10T12:51:20.913Z,48160.00
2019-03-10T12:52:20.900Z,37152.00
2019-03-10T12:53:27.938Z,79264.00
2019-03-10T12:54:20.884Z,70016.00
2019-03-10T12:55:20.889Z,44992.00
2019-03-10T12:56:20.891Z,34528.00
2019-03-10T12:57:20.855Z,30848.00
2019-03-10T12:58:20.840Z,33024.00
2019-03-10T12:59:20.843Z,34784.00
2019-03-10T13:00:50.461Z,40960.00
2019-03-10T13:01:20.870Z,37376.00
2019-03-10T13:02:20.896Z,29472.00
2019-03-10T13:03:20.804Z,29952.00
2019-03-10T13:04:20.792Z,30528.00
2019-03-10T13:05:28.409Z,30112.00
2019-03-10T13:06:20.768Z,29952.00
2019-03-10T13:07:20.802Z,31712.00
2019-03-10T13:08:21.023Z,35168.00
2019-03-10T13:09:20.727Z,34080.00
2019-03-10T13:10:20.830Z,26880.00
2019-03-10T13:11:27.867Z,24800.00
2019-03-10T13:12:21.572Z,24256.00
2019-03-10T13:13:20.741Z,25632.00
2019-03-10T13:14:20.865Z,25920.00
2019-03-10T13:15:20.658Z,24800.00
2019-03-10T13:16:21.466Z,30688.00
2019-03-10T13:17:27.778Z,23264.00
2019-03-10T13:18:20.661Z,20992.00
2019-03-10T13:19:27.814Z,29248.00
2019-03-10T13:21:29.742Z,28576.00
2019-03-10T13:22:29.645Z,27968.00
2019-03-10T13:23:29.620Z,27136.00
2019-03-10T13:25:38.391Z,21344.00
2019-03-10T13:26:41.463Z,23744.00
2019-03-10T13:27:38.349Z,23168.00
2019-03-10T13:28:49.865Z,23936.00
2019-03-10T13:29:45.454Z,22528.00
2019-03-10T13:30:38.289Z,22432.00
2019-03-10T13:31:38.308Z,23072.00
2019-03-10T13:32:38.346Z,47616.00
2019-03-10T13:33:38.256Z,26400.00
2019-03-10T13:35:47.154Z,26368.00
2019-03-10T13:36:46.987Z,29632.00
2019-03-10T13:37:46.948Z,39648.00
2019-03-10T13:39:02.806Z,91840.00
2019-03-10T13:39:46.925Z,83904.00
2019-03-10T13:40:46.931Z,24896.00
2019-03-10T13:41:46.969Z,23296.00
2019-03-10T13:42:46.884Z,83840.00
2019-03-10T13:43:47.066Z,75520.00
2019-03-10T13:44:46.882Z,50720.00
2019-03-10T13:45:46.875Z,90624.00
2019-03-10T13:46:46.865Z,87872.00
2019-03-10T13:47:46.876Z,81760.00
2019-03-10T13:49:10.044Z,50912.00
2019-03-10T13:49:46.825Z,89024.00
2019-03-10T13:50:46.822Z,82976.00
2019-03-10T13:51:46.805Z,51040.00
2019-03-10T13:52:46.805Z,72928.00
2019-03-10T13:53:46.812Z,74528.00
2019-03-10T13:54:46.806Z,73248.00
2019-03-10T13:55:46.757Z,71808.00
2019-03-10T13:56:46.736Z,71104.00
2019-03-10T13:57:46.737Z,65504.00
2019-03-10T13:58:46.725Z,61248.00
2019-03-10T13:59:46.765Z,52800.00
2019-03-10T14:00:46.689Z,56576.00
2019-03-10T14:01:46.686Z,56992.00
2019-03-10T14:02:46.692Z,67360.00
2019-03-10T14:03:54.400Z,60288.00
2019-03-10T14:04:47.186Z,49600.00
2019-03-10T14:05:46.682Z,50624.00
2019-03-10T14:06:46.624Z,61440.00
2019-03-10T14:07:46.619Z,58752.00
2019-03-10T14:08:46.598Z,56704.00
2019-03-10T14:09:46.602Z,55136.00
2019-03-10T14:10:46.584Z,57728.00
2019-03-10T14:11:46.611Z,63840.00
2019-03-10T14:12:53.190Z,65408.00
2019-03-10T14:13:46.588Z,53696.00
2019-03-10T14:14:46.542Z,48640.00
2019-03-10T14:15:46.526Z,58464.00
2019-03-10T14:16:46.523Z,58112.00
2019-03-10T14:17:47.719Z,51552.00
2019-03-10T14:18:46.494Z,46912.00
2019-03-10T14:19:46.513Z,45280.00
2019-03-10T14:20:46.469Z,47808.00
2019-03-10T14:21:46.513Z,48288.00
2019-03-10T14:22:53.561Z,45216.00
2019-03-10T14:23:46.509Z,46848.00
2019-03-10T14:24:47.219Z,47296.00
2019-03-10T14:25:46.421Z,45984.00
2019-03-10T14:26:46.417Z,44320.00
2019-03-10T14:27:47.567Z,40768.00
2019-03-10T14:28:46.439Z,46112.00
2019-03-10T14:29:46.375Z,47840.00
2019-03-10T14:30:46.359Z,53376.00
2019-03-10T14:31:46.349Z,19744.00
2019-03-10T14:32:48.423Z,50208.00
2019-03-10T14:33:46.336Z,51616.00
2019-03-10T14:34:46.710Z,49280.00
2019-03-10T14:35:46.305Z,45984.00
2019-03-10T14:36:46.296Z,45632.00
2019-03-10T14:37:54.219Z,45408.00
2019-03-10T14:38:46.270Z,43456.00
2019-03-10T14:39:46.255Z,41696.00
2019-03-10T14:40:46.262Z,48896.00
2019-03-10T14:41:46.234Z,52704.00
2019-03-10T14:42:46.221Z,42304.00
2019-03-10T14:43:46.250Z,41120.00
2019-03-10T14:44:46.200Z,47168.00
2019-03-10T14:45:46.694Z,43040.00
2019-03-10T14:46:46.250Z,39840.00
2019-03-10T14:47:46.167Z,43776.00
2019-03-10T14:48:46.155Z,40352.00
2019-03-10T14:49:46.180Z,13756.00
2019-03-10T14:50:46.237Z,33984.00
2019-03-10T14:51:52.838Z,22240.00
2019-03-10T14:52:46.113Z,20864.00
2019-03-10T14:53:46.096Z,21856.00
2019-03-10T14:54:46.088Z,33152.00
2019-03-10T14:55:46.120Z,29760.00
2019-03-10T14:56:46.106Z,11380.00
2019-03-10T14:57:46.052Z,20288.00
2019-03-10T14:58:46.062Z,16352.00
2019-03-10T14:59:46.038Z,12072.00
2019-03-10T15:00:46.022Z,10780.00
2019-03-10T15:01:46.054Z,14772.00
2019-03-10T15:02:46.001Z,22624.00
2019-03-10T15:03:46.025Z,28576.00
2019-03-10T15:04:46.022Z,34432.00
2019-03-10T15:05:45.976Z,33312.00
2019-03-10T15:06:45.967Z,31392.00
2019-03-10T15:07:45.946Z,22880.00
2019-03-10T15:08:46.529Z,18944.00
2019-03-10T15:09:45.924Z,19232.00
2019-03-10T15:10:46.697Z,13244.00
2019-03-10T15:12:54.692Z,7908.00
2019-03-10T15:13:54.648Z,7680.00
2019-03-10T15:14:54.627Z,7416.00
2019-03-10T15:16:17.440Z,7088.00
2019-03-10T15:17:01.616Z,7220.00
2019-03-10T15:17:55.595Z,8456.00
2019-03-10T15:18:54.564Z,9336.00
2019-03-10T15:19:54.564Z,8244.00
2019-03-10T15:20:54.672Z,7784.00
2019-03-10T15:21:54.575Z,7204.00
2019-03-10T15:22:54.532Z,7152.00
2019-03-10T15:23:54.507Z,8940.00
2019-03-10T15:24:56.662Z,9132.00
2019-03-10T15:26:02.412Z,7708.00
2019-03-10T15:26:54.511Z,6552.00
2019-03-10T15:27:54.529Z,6340.00
2019-03-10T15:28:55.387Z,6444.00
2019-03-10T15:29:54.461Z,6336.00
2019-03-10T15:31:17.498Z,6396.00
2019-03-10T15:31:54.449Z,6272.00
2019-03-10T15:32:54.471Z,6220.00
2019-03-10T15:33:54.405Z,6292.00
2019-03-10T15:34:54.385Z,6512.00
2019-03-10T15:35:54.384Z,6788.00
2019-03-10T15:36:54.387Z,6572.00
2019-03-10T15:37:54.370Z,6404.00
2019-03-10T15:38:54.389Z,6392.00
2019-03-10T15:39:54.387Z,6316.00
2019-03-10T15:40:54.336Z,6000.00
2019-03-10T15:41:54.316Z,5564.00
2019-03-10T15:42:54.355Z,5492.00
2019-03-10T15:43:54.336Z,5388.00
2019-03-10T15:44:54.282Z,5528.00
2019-03-10T15:46:30.091Z,5484.00
2019-03-10T15:46:54.253Z,5272.00
2019-03-10T15:47:54.282Z,5156.00
2019-03-10T15:48:54.270Z,5212.00
2019-03-10T15:50:15.219Z,5132.00
2019-03-10T15:50:54.213Z,4884.00
2019-03-10T15:51:54.880Z,4816.00
2019-03-10T15:52:54.215Z,4804.00
2019-03-10T15:53:54.200Z,4688.00
2019-03-10T15:54:57.436Z,4740.00
2019-03-10T15:55:54.170Z,4720.00
2019-03-10T15:56:54.151Z,4752.00
2019-03-10T15:57:54.159Z,4720.00
2019-03-10T15:58:54.139Z,4428.00
2019-03-10T16:00:31.460Z,4288.00
2019-03-10T16:00:54.107Z,4212.00
2019-03-10T16:02:01.259Z,4032.00
2019-03-10T16:02:54.102Z,4020.00
2019-03-10T16:03:54.907Z,4192.00
2019-03-10T16:06:03.538Z,4044.00
2019-03-10T16:07:02.854Z,3912.00
2019-03-10T16:08:02.810Z,3772.00
2019-03-10T16:09:02.800Z,3824.00
2019-03-10T16:10:02.758Z,3756.00
2019-03-10T16:11:03.551Z,3708.00
2019-03-10T16:12:02.769Z,3620.00
2019-03-10T16:13:02.729Z,3628.00
2019-03-10T16:14:02.730Z,3716.00
2019-03-10T16:15:05.516Z,3852.00
2019-03-10T16:16:02.710Z,3868.00
2019-03-10T16:17:04.545Z,3792.00
2019-03-10T16:18:03.026Z,3792.00
2019-03-10T16:19:02.665Z,3524.00
2019-03-10T16:20:25.808Z,3308.00
2019-03-10T16:21:02.634Z,3204.00
2019-03-10T16:22:02.627Z,3164.00
2019-03-10T16:23:02.635Z,3192.00
2019-03-10T16:25:11.456Z,3212.00
2019-03-10T16:26:11.564Z,3232.00
2019-03-10T16:27:11.334Z,3380.00
2019-03-10T16:28:18.386Z,3328.00
2019-03-10T16:30:20.183Z,3352.00
2019-03-10T16:31:20.275Z,3096.00
2019-03-10T16:32:20.013Z,3056.00
2019-03-10T16:33:20.186Z,3124.00
2019-03-10T16:34:21.763Z,3000.00
2019-03-10T16:35:22.173Z,2884.00
2019-03-10T16:36:20.046Z,2880.00
2019-03-10T16:37:20.010Z,2728.00
2019-03-10T16:39:27.098Z,2560.00
2019-03-10T16:40:19.971Z,2492.00
2019-03-10T16:41:19.963Z,2476.00
2019-03-10T16:42:19.931Z,2408.00
2019-03-10T16:43:19.952Z,2364.00
2019-03-10T16:44:19.916Z,2352.00
2019-03-10T16:45:19.919Z,2292.00
2019-03-10T16:46:19.860Z,2212.00
2019-03-10T16:47:19.909Z,2124.00
2019-03-10T16:48:19.929Z,2052.00
2019-03-10T16:49:19.852Z,1956.00
2019-03-10T16:50:19.827Z,1892.00
2019-03-10T16:51:19.812Z,1844.00
2019-03-10T16:52:19.794Z,1804.00
2019-03-10T16:53:19.784Z,1748.00
2019-03-10T16:54:19.842Z,1692.00
2019-03-10T16:55:19.779Z,1608.00
2019-03-10T16:56:19.759Z,1552.00
2019-03-10T16:57:19.757Z,1492.00
2019-03-10T16:58:19.858Z,1420.00
2019-03-10T16:59:19.790Z,1344.00
2019-03-10T17:00:19.860Z,1280.00
2019-03-10T17:01:19.705Z,1216.00
2019-03-10T17:02:19.680Z,1156.00
2019-03-10T17:03:19.672Z,1080.00
2019-03-10T17:04:19.686Z,1012.00
2019-03-10T17:05:19.642Z,948.00
2019-03-10T17:06:19.676Z,892.00
2019-03-10T17:07:19.624Z,832.00
2019-03-10T17:08:19.620Z,776.00
2019-03-10T17:09:19.596Z,732.00
2019-03-10T17:10:19.592Z,688.00
2019-03-10T17:11:19.604Z,640.00
2019-03-10T17:12:19.603Z,592.00
2019-03-10T17:13:19.559Z,540.00
2019-03-10T17:14:19.555Z,496.00
2019-03-10T17:15:19.531Z,456.00
2019-03-10T17:16:19.520Z,412.00
2019-03-10T17:17:19.523Z,372.00
2019-03-10T17:18:19.537Z,336.00
2019-03-10T17:19:19.493Z,308.00
2019-03-10T17:20:19.488Z,272.00
2019-03-10T17:21:19.465Z,244.00
2019-03-10T17:22:19.458Z,216.00
2019-03-10T17:23:19.455Z,188.00
2019-03-10T17:24:19.469Z,168.00
2019-03-10T17:25:19.423Z,148.00
2019-03-10T17:26:19.417Z,128.00
2019-03-10T17:27:19.401Z,108.00
2019-03-10T17:28:19.389Z,96.00
2019-03-10T17:29:19.381Z,84.00
2019-03-10T17:30:19.422Z,68.00
2019-03-10T17:31:19.359Z,56.00
2019-03-10T17:32:19.353Z,48.00
2019-03-10T17:33:19.340Z,36.00
2019-03-10T17:34:19.325Z,32.00
2019-03-10T17:35:19.320Z,28.00
2019-03-10T17:36:19.350Z,20.00
2019-03-10T17:37:19.301Z,20.00
2019-03-10T17:38:19.289Z,12.00
2019-03-10T17:39:19.282Z,12.00
2019-03-10T17:40:19.269Z,8.00
2019-03-10T17:41:19.258Z,8.00
2019-03-10T17:42:19.277Z,8.00
2019-03-10T17:43:19.260Z,4.00
2019-03-10T17:44:19.232Z,4.00
2019-03-10T17:45:19.227Z,4.00
2019-03-10T17:46:19.197Z,4.00
2019-03-10T17:47:19.185Z,0.00
2019-03-10T17:48:19.208Z,0.00
2019-03-10T17:49:19.180Z,0.00
2019-03-10T17:50:19.152Z,0.00
2019-03-10T17:51:19.140Z,0.00
2019-03-10T17:52:19.134Z,0.00
2019-03-10T17:53:19.160Z,0.00
2019-03-10T17:54:19.101Z,0.00
2019-03-10T17:55:19.110Z,0.00
2019-03-10T17:56:19.273Z,0.00
2019-03-10T17:57:19.078Z,0.00
2019-03-10T17:58:19.064Z,0.00
2019-03-10T17:59:19.094Z,0.00
2019-03-10T18:00:19.041Z,0.00
2019-03-10T18:01:19.056Z,0.00
2019-03-10T18:02:19.026Z,0.00
2019-03-10T18:03:19.058Z,0.00
2019-03-10T18:04:19.005Z,0.00
2019-03-10T18:05:19.039Z,0.00
2019-03-10T18:06:19.023Z,0.00
2019-03-10T18:07:18.988Z,0.00
2019-03-10T18:08:18.957Z,0.00
2019-03-10T18:09:18.989Z,0.00
2019-03-10T18:10:18.935Z,0.00
2019-03-10T18:11:18.922Z,0.00
2019-03-10T18:12:18.912Z,0.00
2019-03-10T18:13:18.923Z,0.00
2019-03-10T18:14:18.892Z,0.00
2019-03-10T18:15:18.926Z,0.00
2019-03-10T18:16:18.874Z,0.00
2019-03-10T18:17:18.862Z,0.00
2019-03-10T18:18:18.851Z,0.00
2019-03-10T18:19:18.853Z,0.00
2019-03-10T18:20:18.836Z,0.00
2019-03-10T18:21:18.883Z,0.00
2019-03-10T18:22:18.804Z,0.00
2019-03-10T18:23:18.799Z,0.00
2019-03-10T18:24:18.779Z,0.00
2019-03-10T18:25:18.779Z,0.00
2019-03-10T18:26:18.801Z,0.00
2019-03-10T18:27:18.757Z,0.00
2019-03-10T18:28:18.741Z,0.00
2019-03-10T18:29:18.731Z,0.00
2019-03-10T18:30:18.718Z,0.00
2019-03-10T18:31:18.724Z,0.00
2019-03-10T18:32:18.750Z,0.00
2019-03-10T18:33:18.680Z,0.00
2019-03-10T18:34:18.679Z,0.00
2019-03-10T18:35:18.664Z,0.00
2019-03-10T18:36:18.656Z,0.00
2019-03-10T18:37:18.659Z,0.00
2019-03-10T18:38:18.674Z,0.00
2019-03-10T18:39:20.353Z,0.00
2019-03-10T18:40:18.615Z,0.00
2019-03-10T18:41:18.601Z,0.00
2019-03-10T18:42:18.674Z,0.00
2019-03-10T18:43:18.629Z,0.00
2019-03-10T18:44:18.568Z,0.00
2019-03-10T18:45:20.641Z,0.00
2019-03-10T18:46:18.551Z,0.00
2019-03-10T18:47:18.589Z,0.00
2019-03-10T18:48:18.525Z,0.00
2019-03-10T18:49:18.521Z,0.00
2019-03-10T18:50:18.621Z,0.00
2019-03-10T18:51:18.489Z,0.00
2019-03-10T18:52:18.487Z,0.00
2019-03-10T18:53:18.511Z,0.00
2019-03-10T18:54:18.460Z,0.00
2019-03-10T18:56:27.379Z,0.00
2019-03-10T18:57:27.205Z,0.00
2019-03-10T18:58:27.209Z,0.00
2019-03-10T18:59:27.321Z,0.00
2019-03-10T19:00:27.156Z,0.00
2019-03-10T19:01:27.153Z,0.00
2019-03-10T19:02:27.141Z,0.00
2019-03-10T19:03:27.160Z,0.00
2019-03-10T19:04:28.203Z,0.00
2019-03-10T19:05:27.116Z,0.00
2019-03-10T19:06:27.081Z,0.00
2019-03-10T19:07:27.106Z,0.00
2019-03-10T19:08:27.087Z,0.00
2019-03-10T19:09:28.341Z,0.00
2019-03-10T19:10:27.081Z,0.00
2019-03-10T19:11:27.018Z,0.00
2019-03-10T19:12:27.029Z,0.00
2019-03-10T19:13:26.994Z,0.00
2019-03-10T19:14:27.185Z,0.00
2019-03-10T19:15:26.994Z,0.00
2019-03-10T19:16:27.004Z,0.00
2019-03-10T19:17:26.991Z,0.00
2019-03-10T19:18:26.945Z,0.00
2019-03-10T19:20:35.850Z,0.00
2019-03-10T19:21:35.738Z,0.00
2019-03-10T19:22:35.752Z,0.00
2019-03-10T19:23:35.717Z,0.00
2019-03-10T19:24:35.944Z,0.00
2019-03-10T19:25:35.675Z,0.00
2019-03-10T19:26:35.801Z,0.00
2019-03-10T19:27:35.636Z,0.00
2019-03-10T19:28:35.608Z,0.00
2019-03-10T19:29:37.749Z,0.00
2019-03-10T19:30:35.581Z,0.00
2019-03-10T19:31:35.576Z,0.00
2019-03-10T19:32:35.632Z,0.00
2019-03-10T19:33:36.739Z,0.00
2019-03-10T19:34:35.542Z,0.00
2019-03-10T19:35:35.527Z,0.00
2019-03-10T19:36:35.517Z,0.00
2019-03-10T19:37:35.522Z,0.00
2019-03-10T19:38:36.610Z,0.00
2019-03-10T19:39:35.490Z,0.00
2019-03-10T19:40:35.481Z,0.00
2019-03-10T19:41:35.472Z,0.00
2019-03-10T19:42:35.457Z,0.00
2019-03-10T19:43:56.527Z,0.00
2019-03-10T19:44:35.436Z,0.00
2019-03-10T19:45:35.423Z,0.00
2019-03-10T19:46:35.418Z,0.00
2019-03-10T19:47:35.403Z,0.00
2019-03-10T19:48:35.446Z,0.00
2019-03-10T19:49:35.404Z,0.00
2019-03-10T19:50:35.373Z,0.00
2019-03-10T19:51:35.363Z,0.00
2019-03-10T19:52:35.359Z,0.00
2019-03-10T19:53:49.439Z,0.00
2019-03-10T19:54:35.352Z,0.00
2019-03-10T19:55:35.330Z,0.00
2019-03-10T19:56:35.323Z,0.00
2019-03-10T19:57:35.299Z,0.00
2019-03-10T19:58:35.462Z,0.00
2019-03-10T19:59:35.315Z,0.00
2019-03-10T20:00:35.280Z,0.00
2019-03-10T20:01:35.250Z,0.00
2019-03-10T20:02:35.244Z,0.00
2019-03-10T20:03:35.265Z,0.00
2019-03-10T20:04:35.221Z,0.00
2019-03-10T20:05:35.208Z,0.00
2019-03-10T20:06:35.224Z,0.00
2019-03-10T20:07:35.189Z,0.00
2019-03-10T20:08:35.375Z,0.00
2019-03-10T20:09:35.162Z,0.00
2019-03-10T20:10:35.160Z,0.00
2019-03-10T20:11:35.150Z,0.00
2019-03-10T20:12:35.148Z,0.00
2019-03-10T20:13:35.164Z,0.00
2019-03-10T20:14:35.109Z,0.00
2019-03-10T20:15:35.106Z,0.00
2019-03-10T20:16:35.126Z,0.00
2019-03-10T20:17:35.081Z,0.00
2019-03-10T20:18:35.079Z,0.00
2019-03-10T20:19:35.056Z,0.00
2019-03-10T20:20:35.050Z,0.00
2019-03-10T20:21:35.073Z,0.00
2019-03-10T20:22:35.030Z,0.00
2019-03-10T20:23:35.009Z,0.00
2019-03-10T20:24:35.023Z,0.00
2019-03-10T20:25:34.994Z,0.00
2019-03-10T20:26:34.985Z,0.00
2019-03-10T20:27:36.116Z,0.00
2019-03-10T20:28:34.960Z,0.00
2019-03-10T20:29:34.944Z,0.00
2019-03-10T20:30:34.950Z,0.00
2019-03-10T20:31:34.930Z,0.00
2019-03-10T20:32:42.053Z,0.00
2019-03-10T20:33:34.954Z,0.00
2019-03-10T20:34:34.902Z,0.00
2019-03-10T20:35:34.884Z,0.00
2019-03-10T20:36:34.892Z,0.00
2019-03-10T20:37:34.881Z,0.00
2019-03-10T20:38:34.854Z,0.00
2019-03-10T20:39:36.257Z,0.00
2019-03-10T20:40:34.832Z,0.00
2019-03-10T20:41:34.829Z,0.00
2019-03-10T20:42:34.821Z,0.00
2019-03-10T20:43:34.802Z,0.00
2019-03-10T20:44:34.852Z,0.00
2019-03-10T20:45:34.810Z,0.00
2019-03-10T20:46:34.768Z,0.00
2019-03-10T20:47:34.758Z,0.00
2019-03-10T20:48:34.741Z,0.00
2019-03-10T20:49:34.734Z,0.00
2019-03-10T20:50:34.740Z,0.00
2019-03-10T20:51:34.749Z,0.00
2019-03-10T20:52:34.705Z,0.00
2019-03-10T20:53:34.697Z,0.00
2019-03-10T20:54:34.686Z,0.00
2019-03-10T20:55:34.669Z,0.00
2019-03-10T20:56:34.682Z,0.00
2019-03-10T20:57:34.683Z,0.00
2019-03-10T20:58:35.079Z,0.00
2019-03-10T20:59:34.633Z,0.00
2019-03-10T21:00:34.620Z,0.00
2019-03-10T21:01:34.665Z,0.00
2019-03-10T21:02:34.603Z,0.00
2019-03-10T21:03:41.734Z,0.00
2019-03-10T21:04:34.599Z,0.00
2019-03-10T21:05:49.450Z,0.00
2019-03-10T21:06:34.558Z,0.00
2019-03-10T21:07:34.559Z,0.00
2019-03-10T21:08:35.589Z,0.00
2019-03-10T21:09:41.715Z,0.00
2019-03-10T21:10:49.490Z,0.00
2019-03-10T21:11:34.497Z,0.00
2019-03-10T21:12:40.631Z,0.00
2019-03-10T21:13:34.486Z,0.00
2019-03-10T21:14:35.441Z,0.00
2019-03-10T21:15:58.475Z,0.00
2019-03-10T21:16:34.451Z,0.00
2019-03-10T21:17:35.444Z,0.00
2019-03-10T21:18:36.415Z,0.00
2019-03-10T21:19:34.448Z,0.00
2019-03-10T21:20:40.953Z,0.00
2019-03-10T21:21:34.429Z,0.00
2019-03-10T21:22:34.402Z,0.00
2019-03-10T21:23:34.377Z,0.00
2019-03-10T21:24:34.355Z,0.00
2019-03-10T21:25:52.486Z,0.00
2019-03-10T21:26:34.336Z,0.00
2019-03-10T21:27:34.362Z,0.00
2019-03-10T21:28:34.334Z,0.00
2019-03-10T21:29:42.503Z,0.00
2019-03-10T21:30:49.022Z,0.00
2019-03-10T21:31:35.002Z,0.00
2019-03-10T21:32:34.299Z,0.00
2019-03-10T21:33:41.492Z,0.00
2019-03-10T21:34:34.316Z,0.00
2019-03-10T21:35:49.040Z,0.00
2019-03-10T21:36:34.252Z,0.00
2019-03-10T21:37:34.278Z,0.00
2019-03-10T21:38:34.224Z,0.00
2019-03-10T21:39:35.093Z,0.00
2019-03-10T21:40:34.200Z,0.00
2019-03-10T21:41:34.242Z,0.00
2019-03-10T21:42:34.174Z,0.00
2019-03-10T21:43:34.238Z,0.00
2019-03-10T21:44:58.559Z,0.00
2019-03-10T21:45:34.147Z,0.00
2019-03-10T21:46:34.152Z,0.00
2019-03-10T21:47:34.157Z,0.00
2019-03-10T21:48:34.148Z,0.00
2019-03-10T21:50:43.039Z,0.00
2019-03-10T21:51:42.835Z,0.00
2019-03-10T21:52:42.822Z,0.00
2019-03-10T21:53:42.819Z,0.00
2019-03-10T21:54:57.769Z,0.00
2019-03-10T21:55:42.820Z,0.00
2019-03-10T21:56:42.817Z,0.00
2019-03-10T21:57:42.786Z,0.00
2019-03-10T21:58:42.750Z,0.00
2019-03-10T22:00:51.630Z,0.00
2019-03-10T22:01:51.545Z,0.00
2019-03-10T22:02:51.475Z,0.00
2019-03-10T22:03:51.474Z,0.00
2019-03-10T22:06:00.201Z,0.00
2019-03-10T22:07:00.212Z,0.00
2019-03-10T22:08:00.218Z,0.00
2019-03-10T22:09:15.067Z,0.00
2019-03-10T22:10:00.360Z,0.00
2019-03-10T22:11:00.134Z,0.00
2019-03-10T22:12:00.134Z,0.00
2019-03-10T22:13:00.147Z,0.00
2019-03-10T22:14:06.906Z,0.00
2019-03-10T22:15:00.247Z,0.00
2019-03-10T22:16:00.077Z,0.00
2019-03-10T22:17:00.101Z,0.00
2019-03-10T22:18:00.053Z,0.00
2019-03-10T22:20:08.842Z,0.00
2019-03-10T22:21:08.780Z,0.00
2019-03-10T22:22:08.787Z,0.00
2019-03-10T22:23:08.766Z,0.00
2019-03-10T22:24:10.857Z,0.00
2019-03-10T22:25:12.888Z,0.00
2019-03-10T22:26:08.716Z,0.00
2019-03-10T22:27:08.750Z,0.00
2019-03-10T22:28:08.677Z,0.00
2019-03-10T22:29:10.679Z,0.00
2019-03-10T22:30:08.675Z,0.00
2019-03-10T22:31:08.676Z,0.00
2019-03-10T22:32:08.650Z,0.00
2019-03-10T22:33:40.672Z,0.00
2019-03-10T22:34:08.614Z,0.00
2019-03-10T22:35:08.613Z,0.00
2019-03-10T22:36:08.594Z,0.00
2019-03-10T22:37:08.635Z,0.00
2019-03-10T22:38:36.563Z,0.00
2019-03-10T22:39:08.585Z,0.00
2019-03-10T22:40:08.556Z,0.00
2019-03-10T22:41:08.549Z,0.00
2019-03-10T22:42:08.539Z,0.00
2019-03-10T22:43:36.027Z,0.00
2019-03-10T22:44:08.537Z,0.00
2019-03-10T22:45:08.495Z,0.00
2019-03-10T22:46:08.497Z,0.00
2019-03-10T22:47:08.514Z,0.00
2019-03-10T22:48:25.155Z,0.00
2019-03-10T22:49:08.485Z,0.00
2019-03-10T22:50:08.476Z,0.00
2019-03-10T22:51:08.468Z,0.00
2019-03-10T22:52:08.434Z,0.00
2019-03-10T22:54:08.414Z,0.00
2019-03-10T22:55:08.437Z,0.00
2019-03-10T22:56:08.395Z,0.00
2019-03-10T22:57:08.392Z,0.00
2019-03-10T22:58:46.137Z,0.00
2019-03-10T22:59:08.357Z,0.00
2019-03-10T23:00:08.384Z,0.00
2019-03-10T23:01:08.362Z,0.00
2019-03-10T23:02:08.332Z,0.00
2019-03-10T23:04:08.305Z,0.00
2019-03-10T23:05:08.347Z,0.00
2019-03-10T23:06:08.294Z,0.00
2019-03-10T23:07:08.266Z,0.00
2019-03-10T23:09:17.016Z,0.00
2019-03-10T23:10:17.012Z,0.00
2019-03-10T23:11:16.981Z,0.00
2019-03-10T23:12:38.003Z,0.00
2019-03-10T23:13:16.941Z,0.00
2019-03-10T23:14:16.942Z,0.00
2019-03-10T23:15:16.939Z,0.00
2019-03-10T23:16:16.948Z,0.00
2019-03-10T23:18:25.672Z,0.00
2019-03-10T23:19:25.649Z,0.00
2019-03-10T23:20:25.638Z,0.00
2019-03-10T23:21:25.666Z,0.00
2019-03-10T23:22:25.603Z,0.00
2019-03-10T23:23:25.600Z,0.00
2019-03-10T23:24:25.602Z,0.00
2019-03-10T23:25:25.573Z,0.00
2019-03-10T23:26:25.603Z,0.00
2019-03-10T23:28:34.339Z,0.00
2019-03-10T23:29:34.279Z,0.00
2019-03-10T23:30:34.690Z,0.00
2019-03-10T23:31:37.566Z,0.00
2019-03-10T23:32:34.230Z,0.00
2019-03-10T23:33:34.241Z,0.00
2019-03-10T23:34:34.215Z,0.00
2019-03-10T23:35:34.211Z,0.00
2019-03-10T23:37:03.204Z,0.00
2019-03-10T23:37:34.168Z,0.00
2019-03-10T23:38:34.190Z,0.00
2019-03-10T23:39:34.144Z,0.00
2019-03-10T23:40:34.179Z,0.00
2019-03-10T23:42:42.941Z,0.00
2019-03-10T23:43:42.859Z,0.00
2019-03-10T23:44:42.838Z,0.00
2019-03-10T23:45:42.848Z,0.00
2019-03-10T23:47:53.114Z,0.00
2019-03-10T23:49:00.094Z,0.00
2019-03-10T23:49:53.043Z,0.00
2019-03-10T23:53:17.746Z,0.00
2019-03-10T23:54:17.504Z,0.00
2019-03-10T23:55:17.493Z,0.00
2019-03-10T23:57:26.260Z,0.00
2019-03-10T23:58:26.239Z,0.00
2019-03-10T23:59:26.177Z,0.00
